sensor_id;sensor_type;location;lat;lon;timestamp;P1;durP1;ratioP1;P2;durP2;ratioP2
12124;SDS011;6126;57.908;16.490;2022-11-15T00:00:40;2.90;;;2.40;;
12124;SDS011;6126;57.908;16.490;2022-11-15T00:03:06;3.90;;;2.75;;
12124;SDS011;6126;57.908;16.490;2022-11-15T00:05:34;4.28;;;2.47;;
12124;SDS011;6126;57.908;16.490;2022-11-15T00:08:01;3.15;;;2.58;;
12124;SDS011;6126;57.908;16.490;2022-11-15T00:10:27;3.55;;;2.38;;
12124;SDS011;6126;57.908;16.490;2022-11-15T00:12:52;2.90;;;2.40;;
12124;SDS011;6126;57.908;16.490;2022-11-15T00:15:18;2.63;;;2.28;;
12124;SDS011;6126;57.908;16.490;2022-11-15T00:17:44;2.60;;;2.40;;
12124;SDS011;6126;57.908;16.490;2022-11-15T00:20:14;4.00;;;2.35;;
12124;SDS011;6126;57.908;16.490;2022-11-15T00:22:42;5.55;;;2.10;;
12124;SDS011;6126;57.908;16.490;2022-11-15T00:25:08;2.33;;;1.83;;
12124;SDS011;6126;57.908;16.490;2022-11-15T00:27:33;3.67;;;1.88;;
12124;SDS011;6126;57.908;16.490;2022-11-15T00:30:00;2.60;;;2.40;;
12124;SDS011;6126;57.908;16.490;2022-11-15T00:32:26;2.33;;;2.13;;
12124;SDS011;6126;57.908;16.490;2022-11-15T00:34:55;2.17;;;1.98;;
12124;SDS011;6126;57.908;16.490;2022-11-15T00:37:21;2.60;;;2.10;;
12124;SDS011;6126;57.908;16.490;2022-11-15T00:39:47;2.25;;;1.75;;
12124;SDS011;6126;57.908;16.490;2022-11-15T00:42:13;2.25;;;2.05;;
12124;SDS011;6126;57.908;16.490;2022-11-15T00:44:38;2.28;;;2.08;;
12124;SDS011;6126;57.908;16.490;2022-11-15T00:47:04;2.38;;;2.05;;
12124;SDS011;6126;57.908;16.490;2022-11-15T00:49:30;2.40;;;2.20;;
12124;SDS011;6126;57.908;16.490;2022-11-15T00:51:56;2.75;;;2.33;;
12124;SDS011;6126;57.908;16.490;2022-11-15T00:54:22;2.72;;;2.00;;
12124;SDS011;6126;57.908;16.490;2022-11-15T00:56:48;2.20;;;1.80;;
12124;SDS011;6126;57.908;16.490;2022-11-15T00:59:13;4.30;;;2.05;;
12124;SDS011;6126;57.908;16.490;2022-11-15T01:01:39;3.05;;;2.30;;
12124;SDS011;6126;57.908;16.490;2022-11-15T01:04:05;2.35;;;1.92;;
12124;SDS011;6126;57.908;16.490;2022-11-15T01:06:31;3.15;;;2.28;;
12124;SDS011;6126;57.908;16.490;2022-11-15T01:08:57;3.65;;;2.30;;
12124;SDS011;6126;57.908;16.490;2022-11-15T01:11:22;3.22;;;2.13;;
12124;SDS011;6126;57.908;16.490;2022-11-15T01:13:48;3.28;;;2.45;;
12124;SDS011;6126;57.908;16.490;2022-11-15T01:16:15;2.53;;;2.30;;
12124;SDS011;6126;57.908;16.490;2022-11-15T01:18:44;2.80;;;2.17;;
12124;SDS011;6126;57.908;16.490;2022-11-15T01:21:12;2.80;;;1.90;;
12124;SDS011;6126;57.908;16.490;2022-11-15T01:23:41;2.83;;;2.30;;
12124;SDS011;6126;57.908;16.490;2022-11-15T01:26:09;3.10;;;2.15;;
12124;SDS011;6126;57.908;16.490;2022-11-15T01:28:39;3.08;;;2.30;;
12124;SDS011;6126;57.908;16.490;2022-11-15T01:31:08;2.63;;;2.30;;
12124;SDS011;6126;57.908;16.490;2022-11-15T01:33:41;4.25;;;2.40;;
12124;SDS011;6126;57.908;16.490;2022-11-15T01:36:08;2.78;;;2.30;;
12124;SDS011;6126;57.908;16.490;2022-11-15T01:38:44;2.47;;;2.15;;
12124;SDS011;6126;57.908;16.490;2022-11-15T01:41:16;2.67;;;2.45;;
12124;SDS011;6126;57.908;16.490;2022-11-15T01:43:47;2.65;;;2.08;;
12124;SDS011;6126;57.908;16.490;2022-11-15T01:48:59;3.83;;;2.40;;
12124;SDS011;6126;57.908;16.490;2022-11-15T01:51:36;2.58;;;2.22;;
12124;SDS011;6126;57.908;16.490;2022-11-15T01:54:07;1.80;;;1.65;;
12124;SDS011;6126;57.908;16.490;2022-11-15T01:56:49;3.08;;;2.25;;
12124;SDS011;6126;57.908;16.490;2022-11-15T01:59:20;3.42;;;2.10;;
12124;SDS011;6126;57.908;16.490;2022-11-15T02:01:47;2.47;;;2.03;;
12124;SDS011;6126;57.908;16.490;2022-11-15T02:04:13;2.67;;;2.10;;
12124;SDS011;6126;57.908;16.490;2022-11-15T02:06:50;8.00;;;2.00;;
12124;SDS011;6126;57.908;16.490;2022-11-15T02:09:17;2.20;;;1.75;;
12124;SDS011;6126;57.908;16.490;2022-11-15T02:11:43;2.63;;;2.00;;
12124;SDS011;6126;57.908;16.490;2022-11-15T02:14:11;2.13;;;1.92;;
12124;SDS011;6126;57.908;16.490;2022-11-15T02:16:47;3.75;;;2.00;;
12124;SDS011;6126;57.908;16.490;2022-11-15T02:42:32;2.95;;;1.50;;
12124;SDS011;6126;57.908;16.490;2022-11-15T02:45:25;2.35;;;1.70;;
12124;SDS011;6126;57.908;16.490;2022-11-15T02:47:58;2.45;;;1.65;;
12124;SDS011;6126;57.908;16.490;2022-11-15T02:50:28;2.60;;;1.88;;
12124;SDS011;6126;57.908;16.490;2022-11-15T02:52:58;2.28;;;1.50;;
12124;SDS011;6126;57.908;16.490;2022-11-15T02:55:28;2.45;;;1.75;;
12124;SDS011;6126;57.908;16.490;2022-11-15T03:11:58;3.33;;;1.85;;
12124;SDS011;6126;57.908;16.490;2022-11-15T03:14:36;3.72;;;1.92;;
12124;SDS011;6126;57.908;16.490;2022-11-15T03:20:03;3.00;;;1.98;;
12124;SDS011;6126;57.908;16.490;2022-11-15T03:22:36;4.18;;;2.13;;
12124;SDS011;6126;57.908;16.490;2022-11-15T03:25:08;2.50;;;2.25;;
12124;SDS011;6126;57.908;16.490;2022-11-15T03:27:43;3.53;;;1.80;;
12124;SDS011;6126;57.908;16.490;2022-11-15T03:30:15;3.55;;;2.33;;
12124;SDS011;6126;57.908;16.490;2022-11-15T03:32:53;2.83;;;2.15;;
12124;SDS011;6126;57.908;16.490;2022-11-15T03:35:25;2.38;;;1.80;;
12124;SDS011;6126;57.908;16.490;2022-11-15T03:40:30;3.45;;;1.90;;
12124;SDS011;6126;57.908;16.490;2022-11-15T03:46:11;2.28;;;1.67;;
12124;SDS011;6126;57.908;16.490;2022-11-15T03:48:42;1.88;;;1.75;;
12124;SDS011;6126;57.908;16.490;2022-11-15T03:51:19;2.50;;;1.98;;
12124;SDS011;6126;57.908;16.490;2022-11-15T03:53:45;3.15;;;1.73;;
12124;SDS011;6126;57.908;16.490;2022-11-15T03:56:11;2.90;;;1.75;;
12124;SDS011;6126;57.908;16.490;2022-11-15T03:58:37;3.28;;;1.73;;
12124;SDS011;6126;57.908;16.490;2022-11-15T04:01:03;1.77;;;1.48;;
12124;SDS011;6126;57.908;16.490;2022-11-15T04:03:29;2.83;;;1.98;;
12124;SDS011;6126;57.908;16.490;2022-11-15T04:05:55;2.92;;;2.22;;
12124;SDS011;6126;57.908;16.490;2022-11-15T04:08:21;3.97;;;1.75;;
12124;SDS011;6126;57.908;16.490;2022-11-15T04:10:48;2.70;;;2.20;;
12124;SDS011;6126;57.908;16.490;2022-11-15T04:13:15;2.30;;;1.98;;
12124;SDS011;6126;57.908;16.490;2022-11-15T04:15:40;3.25;;;1.63;;
12124;SDS011;6126;57.908;16.490;2022-11-15T04:18:06;2.35;;;2.08;;
12124;SDS011;6126;57.908;16.490;2022-11-15T04:20:32;5.18;;;1.95;;
12124;SDS011;6126;57.908;16.490;2022-11-15T04:23:21;2.22;;;1.60;;
12124;SDS011;6126;57.908;16.490;2022-11-15T04:26:11;3.97;;;2.05;;
12124;SDS011;6126;57.908;16.490;2022-11-15T04:28:43;1.60;;;1.50;;
12124;SDS011;6126;57.908;16.490;2022-11-15T04:31:28;3.05;;;1.60;;
12124;SDS011;6126;57.908;16.490;2022-11-15T04:33:54;1.95;;;1.35;;
12124;SDS011;6126;57.908;16.490;2022-11-15T04:36:20;1.45;;;1.35;;
12124;SDS011;6126;57.908;16.490;2022-11-15T04:39:05;2.10;;;1.65;;
12124;SDS011;6126;57.908;16.490;2022-11-15T04:41:31;1.90;;;1.52;;
12124;SDS011;6126;57.908;16.490;2022-11-15T04:43:57;1.55;;;1.45;;
12124;SDS011;6126;57.908;16.490;2022-11-15T04:46:23;3.10;;;1.88;;
12124;SDS011;6126;57.908;16.490;2022-11-15T04:48:50;2.08;;;1.70;;
12124;SDS011;6126;57.908;16.490;2022-11-15T04:51:17;2.17;;;1.67;;
12124;SDS011;6126;57.908;16.490;2022-11-15T04:53:43;2.28;;;1.70;;
12124;SDS011;6126;57.908;16.490;2022-11-15T04:56:09;4.18;;;1.70;;
12124;SDS011;6126;57.908;16.490;2022-11-15T04:58:35;1.88;;;1.50;;
12124;SDS011;6126;57.908;16.490;2022-11-15T05:01:07;1.85;;;1.65;;
12124;SDS011;6126;57.908;16.490;2022-11-15T05:03:39;2.15;;;1.65;;
12124;SDS011;6126;57.908;16.490;2022-11-15T05:06:24;3.53;;;1.77;;
12124;SDS011;6126;57.908;16.490;2022-11-15T05:08:50;1.88;;;1.60;;
12124;SDS011;6126;57.908;16.490;2022-11-15T05:11:17;3.05;;;1.80;;
12124;SDS011;6126;57.908;16.490;2022-11-15T05:13:43;2.33;;;1.75;;
12124;SDS011;6126;57.908;16.490;2022-11-15T05:16:09;2.38;;;1.40;;
12124;SDS011;6126;57.908;16.490;2022-11-15T05:18:35;1.83;;;1.73;;
12124;SDS011;6126;57.908;16.490;2022-11-15T05:21:06;4.15;;;1.85;;
12124;SDS011;6126;57.908;16.490;2022-11-15T05:23:36;3.42;;;2.00;;
12124;SDS011;6126;57.908;16.490;2022-11-15T05:26:02;2.95;;;2.33;;
12124;SDS011;6126;57.908;16.490;2022-11-15T05:28:30;4.07;;;2.17;;
12124;SDS011;6126;57.908;16.490;2022-11-15T05:31:01;2.13;;;1.92;;
12124;SDS011;6126;57.908;16.490;2022-11-15T05:33:33;5.40;;;2.22;;
12124;SDS011;6126;57.908;16.490;2022-11-15T05:36:02;3.42;;;2.78;;
12124;SDS011;6126;57.908;16.490;2022-11-15T05:38:52;4.20;;;2.38;;
12124;SDS011;6126;57.908;16.490;2022-11-15T05:41:19;2.05;;;1.85;;
12124;SDS011;6126;57.908;16.490;2022-11-15T05:43:55;2.97;;;2.25;;
12124;SDS011;6126;57.908;16.490;2022-11-15T05:46:22;6.90;;;2.72;;
12124;SDS011;6126;57.908;16.490;2022-11-15T05:48:48;2.75;;;2.47;;
12124;SDS011;6126;57.908;16.490;2022-11-15T05:51:18;3.20;;;2.05;;
12124;SDS011;6126;57.908;16.490;2022-11-15T05:53:47;2.70;;;2.17;;
12124;SDS011;6126;57.908;16.490;2022-11-15T05:56:14;3.97;;;1.98;;
12124;SDS011;6126;57.908;16.490;2022-11-15T05:58:41;3.58;;;2.45;;
12124;SDS011;6126;57.908;16.490;2022-11-15T06:01:08;3.00;;;2.10;;
12124;SDS011;6126;57.908;16.490;2022-11-15T06:03:34;4.32;;;2.30;;
12124;SDS011;6126;57.908;16.490;2022-11-15T06:06:00;3.88;;;2.03;;
12124;SDS011;6126;57.908;16.490;2022-11-15T06:08:26;3.42;;;2.25;;
12124;SDS011;6126;57.908;16.490;2022-11-15T06:10:52;3.63;;;2.25;;
12124;SDS011;6126;57.908;16.490;2022-11-15T06:13:18;2.40;;;2.15;;
12124;SDS011;6126;57.908;16.490;2022-11-15T06:15:44;2.72;;;2.08;;
12124;SDS011;6126;57.908;16.490;2022-11-15T06:18:09;4.43;;;2.35;;
12124;SDS011;6126;57.908;16.490;2022-11-15T06:20:35;3.50;;;2.47;;
12124;SDS011;6126;57.908;16.490;2022-11-15T06:23:02;3.17;;;2.15;;
12124;SDS011;6126;57.908;16.490;2022-11-15T06:25:30;2.05;;;1.88;;
12124;SDS011;6126;57.908;16.490;2022-11-15T06:27:57;2.83;;;2.10;;
12124;SDS011;6126;57.908;16.490;2022-11-15T06:30:24;2.38;;;1.92;;
12124;SDS011;6126;57.908;16.490;2022-11-15T06:32:57;2.25;;;1.90;;
12124;SDS011;6126;57.908;16.490;2022-11-15T06:35:25;2.22;;;1.80;;
12124;SDS011;6126;57.908;16.490;2022-11-15T06:37:51;3.70;;;1.90;;
12124;SDS011;6126;57.908;16.490;2022-11-15T06:40:17;4.25;;;1.83;;
12124;SDS011;6126;57.908;16.490;2022-11-15T06:42:43;2.75;;;2.20;;
12124;SDS011;6126;57.908;16.490;2022-11-15T06:45:09;2.63;;;1.77;;
12124;SDS011;6126;57.908;16.490;2022-11-15T06:47:35;4.47;;;1.48;;
12124;SDS011;6126;57.908;16.490;2022-11-15T06:50:00;2.05;;;1.83;;
12124;SDS011;6126;57.908;16.490;2022-11-15T06:52:26;2.40;;;1.50;;
12124;SDS011;6126;57.908;16.490;2022-11-15T06:54:57;1.85;;;1.55;;
12124;SDS011;6126;57.908;16.490;2022-11-15T06:57:23;2.83;;;1.92;;
12124;SDS011;6126;57.908;16.490;2022-11-15T06:59:49;4.03;;;1.75;;
12124;SDS011;6126;57.908;16.490;2022-11-15T07:02:14;4.03;;;1.65;;
12124;SDS011;6126;57.908;16.490;2022-11-15T07:04:40;2.13;;;1.50;;
12124;SDS011;6126;57.908;16.490;2022-11-15T07:07:06;4.97;;;1.63;;
12124;SDS011;6126;57.908;16.490;2022-11-15T07:09:32;1.80;;;1.65;;
12124;SDS011;6126;57.908;16.490;2022-11-15T07:11:58;2.00;;;1.67;;
12124;SDS011;6126;57.908;16.490;2022-11-15T07:14:23;1.70;;;1.58;;
12124;SDS011;6126;57.908;16.490;2022-11-15T07:16:49;2.55;;;1.35;;
12124;SDS011;6126;57.908;16.490;2022-11-15T07:19:15;3.67;;;1.60;;
12124;SDS011;6126;57.908;16.490;2022-11-15T07:21:41;1.30;;;1.20;;
12124;SDS011;6126;57.908;16.490;2022-11-15T07:24:07;2.10;;;1.42;;
12124;SDS011;6126;57.908;16.490;2022-11-15T07:26:32;1.73;;;1.10;;
12124;SDS011;6126;57.908;16.490;2022-11-15T07:28:58;1.40;;;1.30;;
12124;SDS011;6126;57.908;16.490;2022-11-15T07:31:24;0.90;;;0.90;;
12124;SDS011;6126;57.908;16.490;2022-11-15T07:33:50;2.30;;;0.90;;
12124;SDS011;6126;57.908;16.490;2022-11-15T07:36:16;1.25;;;1.00;;
12124;SDS011;6126;57.908;16.490;2022-11-15T07:38:42;0.70;;;0.70;;
12124;SDS011;6126;57.908;16.490;2022-11-15T07:41:08;1.17;;;0.98;;
12124;SDS011;6126;57.908;16.490;2022-11-15T07:43:34;2.63;;;1.10;;
12124;SDS011;6126;57.908;16.490;2022-11-15T07:46:04;1.27;;;0.80;;
12124;SDS011;6126;57.908;16.490;2022-11-15T07:48:34;0.73;;;0.73;;
12124;SDS011;6126;57.908;16.490;2022-11-15T07:51:05;0.68;;;0.68;;
12124;SDS011;6126;57.908;16.490;2022-11-15T07:53:31;1.13;;;0.60;;
12124;SDS011;6126;57.908;16.490;2022-11-15T07:55:57;1.23;;;0.80;;
12124;SDS011;6126;57.908;16.490;2022-11-15T07:58:23;0.40;;;0.40;;
12124;SDS011;6126;57.908;16.490;2022-11-15T08:00:49;0.77;;;0.50;;
12124;SDS011;6126;57.908;16.490;2022-11-15T08:03:15;0.57;;;0.57;;
12124;SDS011;6126;57.908;16.490;2022-11-15T08:05:42;0.63;;;0.63;;
12124;SDS011;6126;57.908;16.490;2022-11-15T08:08:15;1.20;;;0.40;;
12124;SDS011;6126;57.908;16.490;2022-11-15T08:10:41;3.08;;;0.73;;
12124;SDS011;6126;57.908;16.490;2022-11-15T08:13:08;0.38;;;0.38;;
12124;SDS011;6126;57.908;16.490;2022-11-15T08:15:35;0.38;;;0.38;;
12124;SDS011;6126;57.908;16.490;2022-11-15T08:18:04;1.27;;;0.60;;
12124;SDS011;6126;57.908;16.490;2022-11-15T08:20:34;0.60;;;0.60;;
12124;SDS011;6126;57.908;16.490;2022-11-15T08:23:01;0.77;;;0.60;;
12124;SDS011;6126;57.908;16.490;2022-11-15T08:25:29;0.28;;;0.28;;
12124;SDS011;6126;57.908;16.490;2022-11-15T08:27:59;0.50;;;0.50;;
12124;SDS011;6126;57.908;16.490;2022-11-15T08:30:29;0.50;;;0.50;;
12124;SDS011;6126;57.908;16.490;2022-11-15T08:32:59;0.95;;;0.52;;
12124;SDS011;6126;57.908;16.490;2022-11-15T08:35:25;0.40;;;0.40;;
12124;SDS011;6126;57.908;16.490;2022-11-15T08:37:52;0.30;;;0.30;;
12124;SDS011;6126;57.908;16.490;2022-11-15T08:40:18;0.50;;;0.50;;
12124;SDS011;6126;57.908;16.490;2022-11-15T08:42:47;0.20;;;0.20;;
12124;SDS011;6126;57.908;16.490;2022-11-15T08:45:14;1.13;;;0.40;;
12124;SDS011;6126;57.908;16.490;2022-11-15T08:47:40;1.10;;;0.30;;
12124;SDS011;6126;57.908;16.490;2022-11-15T08:50:06;0.52;;;0.30;;
12124;SDS011;6126;57.908;16.490;2022-11-15T08:52:32;0.30;;;0.30;;
12124;SDS011;6126;57.908;16.490;2022-11-15T08:54:58;0.45;;;0.32;;
12124;SDS011;6126;57.908;16.490;2022-11-15T08:57:24;0.88;;;0.30;;
12124;SDS011;6126;57.908;16.490;2022-11-15T08:59:54;0.80;;;0.30;;
12124;SDS011;6126;57.908;16.490;2022-11-15T09:02:20;0.22;;;0.22;;
12124;SDS011;6126;57.908;16.490;2022-11-15T09:04:46;0.30;;;0.20;;
12124;SDS011;6126;57.908;16.490;2022-11-15T09:07:12;0.25;;;0.25;;
12124;SDS011;6126;57.908;16.490;2022-11-15T09:09:39;0.20;;;0.20;;
12124;SDS011;6126;57.908;16.490;2022-11-15T09:12:05;0.95;;;0.30;;
12124;SDS011;6126;57.908;16.490;2022-11-15T09:14:32;0.52;;;0.32;;
12124;SDS011;6126;57.908;16.490;2022-11-15T09:16:58;0.93;;;0.20;;
12124;SDS011;6126;57.908;16.490;2022-11-15T09:19:25;0.50;;;0.30;;
12124;SDS011;6126;57.908;16.490;2022-11-15T09:21:51;0.13;;;0.13;;
12124;SDS011;6126;57.908;16.490;2022-11-15T09:24:17;0.63;;;0.32;;
12124;SDS011;6126;57.908;16.490;2022-11-15T09:26:43;0.20;;;0.20;;
12124;SDS011;6126;57.908;16.490;2022-11-15T09:29:09;0.50;;;0.30;;
12124;SDS011;6126;57.908;16.490;2022-11-15T09:31:35;0.30;;;0.30;;
12124;SDS011;6126;57.908;16.490;2022-11-15T09:34:01;0.10;;;0.10;;
12124;SDS011;6126;57.908;16.490;2022-11-15T09:36:27;0.25;;;0.25;;
12124;SDS011;6126;57.908;16.490;2022-11-15T09:38:53;0.30;;;0.30;;
12124;SDS011;6126;57.908;16.490;2022-11-15T09:41:23;0.20;;;0.20;;
12124;SDS011;6126;57.908;16.490;2022-11-15T09:51:06;1.10;;;0.47;;
12124;SDS011;6126;57.908;16.490;2022-11-15T09:53:33;0.80;;;0.50;;
12124;SDS011;6126;57.908;16.490;2022-11-15T10:01:44;0.40;;;0.40;;
12124;SDS011;6126;57.908;16.490;2022-11-15T10:04:25;0.32;;;0.30;;
12124;SDS011;6126;57.908;16.490;2022-11-15T10:12:17;0.43;;;0.43;;
12124;SDS011;6126;57.908;16.490;2022-11-15T10:14:45;0.28;;;0.20;;
12124;SDS011;6126;57.908;16.490;2022-11-15T10:17:21;1.50;;;0.50;;
12124;SDS011;6126;57.908;16.490;2022-11-15T10:20:25;1.08;;;0.45;;
12124;SDS011;6126;57.908;16.490;2022-11-15T10:22:59;0.98;;;0.30;;
12124;SDS011;6126;57.908;16.490;2022-11-15T10:25:28;2.25;;;0.60;;
12124;SDS011;6126;57.908;16.490;2022-11-15T10:30:38;0.68;;;0.50;;
12124;SDS011;6126;57.908;16.490;2022-11-15T10:33:17;1.67;;;0.40;;
12124;SDS011;6126;57.908;16.490;2022-11-15T10:41:19;1.50;;;0.30;;
12124;SDS011;6126;57.908;16.490;2022-11-15T10:46:35;0.57;;;0.50;;
12124;SDS011;6126;57.908;16.490;2022-11-15T10:49:23;1.33;;;0.40;;
12124;SDS011;6126;57.908;16.490;2022-11-15T10:51:54;1.95;;;0.40;;
12124;SDS011;6126;57.908;16.490;2022-11-15T10:54:40;0.88;;;0.50;;
12124;SDS011;6126;57.908;16.490;2022-11-15T10:57:20;0.70;;;0.40;;
12124;SDS011;6126;57.908;16.490;2022-11-15T11:00:05;1.35;;;0.47;;
12124;SDS011;6126;57.908;16.490;2022-11-15T11:05:26;0.38;;;0.30;;
12124;SDS011;6126;57.908;16.490;2022-11-15T11:08:19;1.00;;;0.40;;
12124;SDS011;6126;57.908;16.490;2022-11-15T11:13:23;1.08;;;0.40;;
12124;SDS011;6126;57.908;16.490;2022-11-15T11:16:14;0.52;;;0.50;;
12124;SDS011;6126;57.908;16.490;2022-11-15T11:18:42;1.33;;;0.43;;
12124;SDS011;6126;57.908;16.490;2022-11-15T11:21:17;0.25;;;0.20;;
12124;SDS011;6126;57.908;16.490;2022-11-15T11:29:50;0.60;;;0.50;;
12124;SDS011;6126;57.908;16.490;2022-11-15T11:35:13;0.45;;;0.38;;
12124;SDS011;6126;57.908;16.490;2022-11-15T11:37:51;0.63;;;0.22;;
12124;SDS011;6126;57.908;16.490;2022-11-15T11:40:23;0.75;;;0.40;;
12124;SDS011;6126;57.908;16.490;2022-11-15T11:48:42;1.45;;;0.52;;
12124;SDS011;6126;57.908;16.490;2022-11-15T11:56:31;2.35;;;0.32;;
12124;SDS011;6126;57.908;16.490;2022-11-15T12:01:53;1.15;;;0.47;;
12124;SDS011;6126;57.908;16.490;2022-11-15T12:04:29;2.22;;;0.40;;
12124;SDS011;6126;57.908;16.490;2022-11-15T12:07:04;1.35;;;0.40;;
12124;SDS011;6126;57.908;16.490;2022-11-15T12:15:23;0.57;;;0.43;;
12124;SDS011;6126;57.908;16.490;2022-11-15T12:17:55;0.50;;;0.40;;
12124;SDS011;6126;57.908;16.490;2022-11-15T12:20:23;0.20;;;0.20;;
12124;SDS011;6126;57.908;16.490;2022-11-15T12:23:01;1.13;;;0.40;;
12124;SDS011;6126;57.908;16.490;2022-11-15T12:26:09;0.47;;;0.22;;
12124;SDS011;6126;57.908;16.490;2022-11-15T12:28:59;0.63;;;0.40;;
12124;SDS011;6126;57.908;16.490;2022-11-15T12:31:58;0.95;;;0.55;;
12124;SDS011;6126;57.908;16.490;2022-11-15T12:36:53;1.08;;;0.30;;
12124;SDS011;6126;57.908;16.490;2022-11-15T12:39:20;0.90;;;0.47;;
12124;SDS011;6126;57.908;16.490;2022-11-15T12:47:23;0.65;;;0.57;;
12124;SDS011;6126;57.908;16.490;2022-11-15T12:49:51;0.25;;;0.25;;
12124;SDS011;6126;57.908;16.490;2022-11-15T12:52:18;1.48;;;0.85;;
12124;SDS011;6126;57.908;16.490;2022-11-15T12:54:49;0.30;;;0.30;;
12124;SDS011;6126;57.908;16.490;2022-11-15T12:57:27;1.38;;;0.52;;
12124;SDS011;6126;57.908;16.490;2022-11-15T12:59:56;0.30;;;0.30;;
12124;SDS011;6126;57.908;16.490;2022-11-15T13:17:43;0.63;;;0.57;;
12124;SDS011;6126;57.908;16.490;2022-11-15T13:31:25;0.40;;;0.40;;
12124;SDS011;6126;57.908;16.490;2022-11-15T13:33:41;0.85;;;0.50;;
12124;SDS011;6126;57.908;16.490;2022-11-15T13:36:15;1.98;;;0.35;;
12124;SDS011;6126;57.908;16.490;2022-11-15T13:39:01;1.70;;;0.47;;
12124;SDS011;6126;57.908;16.490;2022-11-15T13:41:46;0.43;;;0.43;;
12124;SDS011;6126;57.908;16.490;2022-11-15T13:44:26;0.60;;;0.32;;
12124;SDS011;6126;57.908;16.490;2022-11-15T13:47:20;0.45;;;0.30;;
12124;SDS011;6126;57.908;16.490;2022-11-15T13:49:45;1.17;;;0.30;;
12124;SDS011;6126;57.908;16.490;2022-11-15T13:52:12;0.65;;;0.40;;
12124;SDS011;6126;57.908;16.490;2022-11-15T13:54:50;2.15;;;0.57;;
12124;SDS011;6126;57.908;16.490;2022-11-15T13:59:59;2.60;;;0.50;;
12124;SDS011;6126;57.908;16.490;2022-11-15T14:02:31;1.52;;;0.50;;
12124;SDS011;6126;57.908;16.490;2022-11-15T14:05:22;0.35;;;0.30;;
12124;SDS011;6126;57.908;16.490;2022-11-15T14:07:53;0.38;;;0.30;;
12124;SDS011;6126;57.908;16.490;2022-11-15T14:10:32;1.85;;;0.50;;
12124;SDS011;6126;57.908;16.490;2022-11-15T14:13:01;0.60;;;0.40;;
12124;SDS011;6126;57.908;16.490;2022-11-15T14:15:35;0.93;;;0.50;;
12124;SDS011;6126;57.908;16.490;2022-11-15T14:18:04;0.40;;;0.28;;
12124;SDS011;6126;57.908;16.490;2022-11-15T14:22:58;1.15;;;0.40;;
12124;SDS011;6126;57.908;16.490;2022-11-15T14:25:29;0.40;;;0.30;;
12124;SDS011;6126;57.908;16.490;2022-11-15T14:30:48;0.98;;;0.40;;
12124;SDS011;6126;57.908;16.490;2022-11-15T14:36:17;3.58;;;0.63;;
12124;SDS011;6126;57.908;16.490;2022-11-15T14:38:46;1.33;;;0.50;;
12124;SDS011;6126;57.908;16.490;2022-11-15T14:43:51;0.68;;;0.30;;
12124;SDS011;6126;57.908;16.490;2022-11-15T14:46:18;0.95;;;0.40;;
12124;SDS011;6126;57.908;16.490;2022-11-15T14:48:44;1.90;;;0.20;;
12124;SDS011;6126;57.908;16.490;2022-11-15T14:51:15;0.20;;;0.20;;
12124;SDS011;6126;57.908;16.490;2022-11-15T14:53:43;0.20;;;0.20;;
12124;SDS011;6126;57.908;16.490;2022-11-15T14:56:10;0.75;;;0.28;;
12124;SDS011;6126;57.908;16.490;2022-11-15T14:58:37;1.75;;;0.17;;
12124;SDS011;6126;57.908;16.490;2022-11-15T15:01:09;0.35;;;0.20;;
12124;SDS011;6126;57.908;16.490;2022-11-15T15:03:48;1.65;;;0.50;;
12124;SDS011;6126;57.908;16.490;2022-11-15T15:06:17;5.43;;;0.50;;
12124;SDS011;6126;57.908;16.490;2022-11-15T15:08:44;2.10;;;0.30;;
12124;SDS011;6126;57.908;16.490;2022-11-15T15:11:14;0.85;;;0.40;;
12124;SDS011;6126;57.908;16.490;2022-11-15T15:13:48;0.20;;;0.20;;
12124;SDS011;6126;57.908;16.490;2022-11-15T15:16:14;0.95;;;0.22;;
12124;SDS011;6126;57.908;16.490;2022-11-15T15:18:40;0.43;;;0.30;;
12124;SDS011;6126;57.908;16.490;2022-11-15T15:21:14;0.20;;;0.20;;
12124;SDS011;6126;57.908;16.490;2022-11-15T15:23:53;0.75;;;0.32;;
12124;SDS011;6126;57.908;16.490;2022-11-15T15:26:19;0.10;;;0.10;;
12124;SDS011;6126;57.908;16.490;2022-11-15T15:28:47;0.47;;;0.20;;
12124;SDS011;6126;57.908;16.490;2022-11-15T15:31:16;0.47;;;0.30;;
12124;SDS011;6126;57.908;16.490;2022-11-15T15:33:43;0.57;;;0.32;;
12124;SDS011;6126;57.908;16.490;2022-11-15T15:36:13;0.52;;;0.40;;
12124;SDS011;6126;57.908;16.490;2022-11-15T15:38:43;0.20;;;0.20;;
12124;SDS011;6126;57.908;16.490;2022-11-15T15:41:12;1.10;;;0.40;;
12124;SDS011;6126;57.908;16.490;2022-11-15T15:43:40;0.10;;;0.10;;
12124;SDS011;6126;57.908;16.490;2022-11-15T15:46:10;0.20;;;0.20;;
12124;SDS011;6126;57.908;16.490;2022-11-15T15:48:41;0.55;;;0.38;;
12124;SDS011;6126;57.908;16.490;2022-11-15T15:51:08;0.20;;;0.20;;
12124;SDS011;6126;57.908;16.490;2022-11-15T15:53:35;0.55;;;0.10;;
12124;SDS011;6126;57.908;16.490;2022-11-15T15:56:01;0.40;;;0.30;;
12124;SDS011;6126;57.908;16.490;2022-11-15T15:58:28;2.20;;;0.25;;
12124;SDS011;6126;57.908;16.490;2022-11-15T16:00:54;0.82;;;0.35;;
12124;SDS011;6126;57.908;16.490;2022-11-15T16:03:20;0.63;;;0.28;;
12124;SDS011;6126;57.908;16.490;2022-11-15T16:05:46;0.20;;;0.20;;
12124;SDS011;6126;57.908;16.490;2022-11-15T16:08:24;0.28;;;0.13;;
12124;SDS011;6126;57.908;16.490;2022-11-15T16:10:52;0.32;;;0.32;;
12124;SDS011;6126;57.908;16.490;2022-11-15T16:13:18;0.85;;;0.30;;
12124;SDS011;6126;57.908;16.490;2022-11-15T16:15:44;1.20;;;0.45;;
12124;SDS011;6126;57.908;16.490;2022-11-15T16:18:15;0.57;;;0.50;;
12124;SDS011;6126;57.908;16.490;2022-11-15T16:20:43;1.70;;;0.35;;
12124;SDS011;6126;57.908;16.490;2022-11-15T16:23:15;2.47;;;0.60;;
12124;SDS011;6126;57.908;16.490;2022-11-15T16:25:49;0.73;;;0.30;;
12124;SDS011;6126;57.908;16.490;2022-11-15T16:28:19;0.57;;;0.30;;
12124;SDS011;6126;57.908;16.490;2022-11-15T16:30:46;1.23;;;0.47;;
12124;SDS011;6126;57.908;16.490;2022-11-15T16:33:13;1.45;;;0.30;;
12124;SDS011;6126;57.908;16.490;2022-11-15T16:35:40;1.58;;;0.55;;
12124;SDS011;6126;57.908;16.490;2022-11-15T16:38:07;0.95;;;0.43;;
12124;SDS011;6126;57.908;16.490;2022-11-15T16:40:40;0.30;;;0.30;;
12124;SDS011;6126;57.908;16.490;2022-11-15T16:43:06;0.95;;;0.50;;
12124;SDS011;6126;57.908;16.490;2022-11-15T16:45:33;0.47;;;0.40;;
12124;SDS011;6126;57.908;16.490;2022-11-15T16:47:59;0.40;;;0.25;;
12124;SDS011;6126;57.908;16.490;2022-11-15T16:50:27;0.38;;;0.30;;
12124;SDS011;6126;57.908;16.490;2022-11-15T16:52:57;1.45;;;0.60;;
12124;SDS011;6126;57.908;16.490;2022-11-15T16:55:25;0.75;;;0.43;;
12124;SDS011;6126;57.908;16.490;2022-11-15T16:57:53;0.40;;;0.40;;
12124;SDS011;6126;57.908;16.490;2022-11-15T17:00:22;1.52;;;0.57;;
12124;SDS011;6126;57.908;16.490;2022-11-15T17:02:49;2.38;;;0.40;;
12124;SDS011;6126;57.908;16.490;2022-11-15T17:05:17;0.65;;;0.30;;
12124;SDS011;6126;57.908;16.490;2022-11-15T17:07:50;0.73;;;0.40;;
12124;SDS011;6126;57.908;16.490;2022-11-15T17:10:18;0.90;;;0.32;;
12124;SDS011;6126;57.908;16.490;2022-11-15T17:12:47;0.50;;;0.38;;
12124;SDS011;6126;57.908;16.490;2022-11-15T17:15:14;1.75;;;0.40;;
12124;SDS011;6126;57.908;16.490;2022-11-15T17:17:39;0.70;;;0.25;;
12124;SDS011;6126;57.908;16.490;2022-11-15T17:20:09;0.15;;;0.15;;
12124;SDS011;6126;57.908;16.490;2022-11-15T17:22:42;0.60;;;0.30;;
12124;SDS011;6126;57.908;16.490;2022-11-15T17:25:09;0.80;;;0.38;;
12124;SDS011;6126;57.908;16.490;2022-11-15T17:27:35;0.65;;;0.40;;
12124;SDS011;6126;57.908;16.490;2022-11-15T17:30:01;1.48;;;0.47;;
12124;SDS011;6126;57.908;16.490;2022-11-15T17:32:29;2.35;;;0.38;;
12124;SDS011;6126;57.908;16.490;2022-11-15T17:34:55;2.80;;;0.65;;
12124;SDS011;6126;57.908;16.490;2022-11-15T17:37:20;0.73;;;0.40;;
12124;SDS011;6126;57.908;16.490;2022-11-15T17:39:46;4.88;;;0.55;;
12124;SDS011;6126;57.908;16.490;2022-11-15T17:42:12;0.30;;;0.30;;